sensor_id;sensor_type;location;lat;lon;timestamp;temperature;humidity
19261;DHT22;75986;48.588;9.216;2024-02-04T10:35:42;19.80;86.40
19261;DHT22;75986;48.588;9.216;2024-02-04T10:38:13;19.90;87.20
19261;DHT22;75986;48.588;9.216;2024-02-04T10:40:43;19.90;87.40
19261;DHT22;75986;48.588;9.216;2024-02-04T10:43:15;19.80;87.20
19261;DHT22;75986;48.588;9.216;2024-02-04T10:45:51;19.90;87.20
19261;DHT22;75986;48.588;9.216;2024-02-04T10:48:25;19.80;87.20
19261;DHT22;75986;48.588;9.216;2024-02-04T10:50:58;19.80;87.00
19261;DHT22;75986;48.588;9.216;2024-02-04T10:53:28;19.80;87.20
19261;DHT22;75986;48.588;9.216;2024-02-04T10:56:01;19.80;87.40
19261;DHT22;75986;48.588;9.216;2024-02-04T10:58:35;19.80;87.40
19261;DHT22;75986;48.588;9.216;2024-02-04T11:01:08;19.80;87.90
19261;DHT22;75986;48.588;9.216;2024-02-04T11:03:39;19.80;87.80
19261;DHT22;75986;48.588;9.216;2024-02-04T11:06:11;19.90;87.40
19261;DHT22;75986;48.588;9.216;2024-02-04T11:08:42;19.90;87.50
19261;DHT22;75986;48.588;9.216;2024-02-04T11:11:13;19.90;87.40
19261;DHT22;75986;48.588;9.216;2024-02-04T11:13:45;19.80;88.10
19261;DHT22;75986;48.588;9.216;2024-02-04T11:16:40;19.80;87.40
19261;DHT22;75986;48.588;9.216;2024-02-04T11:19:27;19.80;87.30
19261;DHT22;75986;48.588;9.216;2024-02-04T11:25:09;19.90;87.90
19261;DHT22;75986;48.588;9.216;2024-02-04T11:27:45;19.90;87.70
19261;DHT22;75986;48.588;9.216;2024-02-04T11:30:16;19.90;88.20
19261;DHT22;75986;48.588;9.216;2024-02-04T11:32:49;20.00;88.10
19261;DHT22;75986;48.588;9.216;2024-02-04T11:35:20;19.90;88.30
19261;DHT22;75986;48.588;9.216;2024-02-04T11:37:51;20.00;88.60
19261;DHT22;75986;48.588;9.216;2024-02-04T11:40:31;20.00;88.70
19261;DHT22;75986;48.588;9.216;2024-02-04T11:43:06;20.00;88.30
19261;DHT22;75986;48.588;9.216;2024-02-04T11:45:40;20.00;88.50
19261;DHT22;75986;48.588;9.216;2024-02-04T11:48:13;20.10;88.20
19261;DHT22;75986;48.588;9.216;2024-02-04T11:50:52;20.10;88.40
19261;DHT22;75986;48.588;9.216;2024-02-04T11:53:23;20.10;88.60
19261;DHT22;75986;48.588;9.216;2024-02-04T11:55:56;20.10;88.50
19261;DHT22;75986;48.588;9.216;2024-02-04T11:58:27;20.10;88.60
19261;DHT22;75986;48.588;9.216;2024-02-04T12:01:01;20.10;88.40
19261;DHT22;75986;48.588;9.216;2024-02-04T12:03:34;20.10;88.30
19261;DHT22;75986;48.588;9.216;2024-02-04T12:06:05;20.10;88.20
19261;DHT22;75986;48.588;9.216;2024-02-04T12:08:36;20.10;88.10
19261;DHT22;75986;48.588;9.216;2024-02-04T12:11:08;20.10;88.40
19261;DHT22;75986;48.588;9.216;2024-02-04T12:13:40;20.10;88.30
19261;DHT22;75986;48.588;9.216;2024-02-04T12:16:10;20.10;88.60
19261;DHT22;75986;48.588;9.216;2024-02-04T12:18:50;20.10;88.70
19261;DHT22;75986;48.588;9.216;2024-02-04T12:21:21;20.10;89.00
19261;DHT22;75986;48.588;9.216;2024-02-04T12:23:51;20.20;89.50
19261;DHT22;75986;48.588;9.216;2024-02-04T12:26:23;20.20;89.50
19261;DHT22;75986;48.588;9.216;2024-02-04T12:28:53;20.20;89.60
19261;DHT22;75986;48.588;9.216;2024-02-04T12:31:26;20.20;89.60
19261;DHT22;75986;48.588;9.216;2024-02-04T12:34:00;20.30;89.90
19261;DHT22;75986;48.588;9.216;2024-02-04T12:36:31;20.30;90.00
19261;DHT22;75986;48.588;9.216;2024-02-04T12:39:02;20.30;90.20
19261;DHT22;75986;48.588;9.216;2024-02-04T12:41:37;20.30;90.20
19261;DHT22;75986;48.588;9.216;2024-02-04T12:44:07;20.30;90.10
19261;DHT22;75986;48.588;9.216;2024-02-04T12:46:37;20.30;90.50
19261;DHT22;75986;48.588;9.216;2024-02-04T12:49:16;20.40;90.40
19261;DHT22;75986;48.588;9.216;2024-02-04T12:51:48;20.40;90.50
19261;DHT22;75986;48.588;9.216;2024-02-04T12:54:19;20.40;90.60
19261;DHT22;75986;48.588;9.216;2024-02-04T12:56:50;20.40;90.70
19261;DHT22;75986;48.588;9.216;2024-02-04T12:59:25;20.40;90.90
19261;DHT22;75986;48.588;9.216;2024-02-04T13:01:57;20.40;90.80
19261;DHT22;75986;48.588;9.216;2024-02-04T13:04:36;20.40;90.80
19261;DHT22;75986;48.588;9.216;2024-02-04T13:07:08;20.40;91.00
19261;DHT22;75986;48.588;9.216;2024-02-04T13:09:41;20.50;91.10
19261;DHT22;75986;48.588;9.216;2024-02-04T13:12:14;20.50;91.20
19261;DHT22;75986;48.588;9.216;2024-02-04T13:14:45;20.50;91.30
19261;DHT22;75986;48.588;9.216;2024-02-04T13:17:15;20.50;91.40
19261;DHT22;75986;48.588;9.216;2024-02-04T13:19:48;20.50;91.50
19261;DHT22;75986;48.588;9.216;2024-02-04T13:22:19;20.50;91.60
19261;DHT22;75986;48.588;9.216;2024-02-04T13:24:49;20.60;91.70
19261;DHT22;75986;48.588;9.216;2024-02-04T13:27:19;20.60;91.80
19261;DHT22;75986;48.588;9.216;2024-02-04T13:29:50;20.60;91.80
19261;DHT22;75986;48.588;9.216;2024-02-04T13:32:21;20.70;91.90
19261;DHT22;75986;48.588;9.216;2024-02-04T13:34:54;20.70;92.10
19261;DHT22;75986;48.588;9.216;2024-02-04T13:37:39;20.70;92.30
19261;DHT22;75986;48.588;9.216;2024-02-04T13:40:14;20.70;92.40
19261;DHT22;75986;48.588;9.216;2024-02-04T13:42:45;20.80;92.60
19261;DHT22;75986;48.588;9.216;2024-02-04T13:45:16;20.80;92.60
19261;DHT22;75986;48.588;9.216;2024-02-04T13:47:46;20.80;92.70
19261;DHT22;75986;48.588;9.216;2024-02-04T13:50:19;20.80;92.80
19261;DHT22;75986;48.588;9.216;2024-02-04T13:52:50;20.80;92.80
19261;DHT22;75986;48.588;9.216;2024-02-04T13:55:20;20.80;92.80
19261;DHT22;75986;48.588;9.216;2024-02-04T13:57:50;20.80;92.90
19261;DHT22;75986;48.588;9.216;2024-02-04T14:00:21;20.80;92.80
19261;DHT22;75986;48.588;9.216;2024-02-04T14:02:51;20.80;92.90
19261;DHT22;75986;48.588;9.216;2024-02-04T14:05:24;20.90;92.90
19261;DHT22;75986;48.588;9.216;2024-02-04T14:07:55;20.90;93.00
19261;DHT22;75986;48.588;9.216;2024-02-04T14:10:26;20.90;93.10
19261;DHT22;75986;48.588;9.216;2024-02-04T14:12:56;20.90;93.10
19261;DHT22;75986;48.588;9.216;2024-02-04T14:15:27;20.90;93.20
19261;DHT22;75986;48.588;9.216;2024-02-04T14:17:59;20.90;93.20
19261;DHT22;75986;48.588;9.216;2024-02-04T14:20:31;21.00;93.20
19261;DHT22;75986;48.588;9.216;2024-02-04T14:23:02;21.00;93.30
19261;DHT22;75986;48.588;9.216;2024-02-04T14:25:32;21.00;93.30
19261;DHT22;75986;48.588;9.216;2024-02-04T14:28:03;21.00;93.30
19261;DHT22;75986;48.588;9.216;2024-02-04T14:30:33;21.00;93.40
19261;DHT22;75986;48.588;9.216;2024-02-04T14:33:04;21.00;93.40
19261;DHT22;75986;48.588;9.216;2024-02-04T14:35:38;21.00;93.40
19261;DHT22;75986;48.588;9.216;2024-02-04T14:38:08;20.90;93.30
19261;DHT22;75986;48.588;9.216;2024-02-04T14:40:40;20.90;93.40
19261;DHT22;75986;48.588;9.216;2024-02-04T14:43:10;20.90;93.40
19261;DHT22;75986;48.588;9.216;2024-02-04T14:45:41;20.90;93.40
19261;DHT22;75986;48.588;9.216;2024-02-04T14:48:11;20.90;93.40
19261;DHT22;75986;48.588;9.216;2024-02-04T14:50:44;20.90;93.40
19261;DHT22;75986;48.588;9.216;2024-02-04T14:53:15;20.90;93.40
19261;DHT22;75986;48.588;9.216;2024-02-04T14:55:45;20.90;93.40
19261;DHT22;75986;48.588;9.216;2024-02-04T14:58:15;20.90;93.50
19261;DHT22;75986;48.588;9.216;2024-02-04T15:00:46;20.80;93.50
19261;DHT22;75986;48.588;9.216;2024-02-04T15:03:17;20.80;93.50
19261;DHT22;75986;48.588;9.216;2024-02-04T15:05:50;20.80;93.50
19261;DHT22;75986;48.588;9.216;2024-02-04T15:08:21;20.90;93.50
19261;DHT22;75986;48.588;9.216;2024-02-04T15:10:51;20.90;93.50
19261;DHT22;75986;48.588;9.216;2024-02-04T15:13:22;20.90;93.50
19261;DHT22;75986;48.588;9.216;2024-02-04T15:15:57;20.90;93.50
19261;DHT22;75986;48.588;9.216;2024-02-04T15:18:28;20.90;93.50
19261;DHT22;75986;48.588;9.216;2024-02-04T15:21:02;20.80;93.50
19261;DHT22;75986;48.588;9.216;2024-02-04T15:23:33;20.80;93.50
19261;DHT22;75986;48.588;9.216;2024-02-04T15:26:07;20.80;93.50
19261;DHT22;75986;48.588;9.216;2024-02-04T15:28:43;20.80;93.60
19261;DHT22;75986;48.588;9.216;2024-02-04T15:31:16;20.80;93.50
19261;DHT22;75986;48.588;9.216;2024-02-04T15:33:47;20.80;93.50
19261;DHT22;75986;48.588;9.216;2024-02-04T15:36:20;20.80;93.50
19261;DHT22;75986;48.588;9.216;2024-02-04T15:38:52;20.80;93.50
19261;DHT22;75986;48.588;9.216;2024-02-04T15:41:22;20.80;93.50
19261;DHT22;75986;48.588;9.216;2024-02-04T15:43:53;20.80;93.50
19261;DHT22;75986;48.588;9.216;2024-02-04T15:46:23;20.80;93.50
19261;DHT22;75986;48.588;9.216;2024-02-04T15:48:54;20.80;93.60
19261;DHT22;75986;48.588;9.216;2024-02-04T15:51:29;20.80;93.70
19261;DHT22;75986;48.588;9.216;2024-02-04T15:54:00;20.80;93.70
19261;DHT22;75986;48.588;9.216;2024-02-04T15:56:33;20.80;93.70
19261;DHT22;75986;48.588;9.216;2024-02-04T15:59:06;20.80;93.60
19261;DHT22;75986;48.588;9.216;2024-02-04T16:01:39;20.80;93.60
19261;DHT22;75986;48.588;9.216;2024-02-04T16:04:11;20.80;93.60
19261;DHT22;75986;48.588;9.216;2024-02-04T16:06:47;20.80;93.60
19261;DHT22;75986;48.588;9.216;2024-02-04T16:09:18;20.80;93.60
19261;DHT22;75986;48.588;9.216;2024-02-04T16:11:52;20.80;93.60
19261;DHT22;75986;48.588;9.216;2024-02-04T16:14:29;20.80;93.70
19261;DHT22;75986;48.588;9.216;2024-02-04T16:17:04;20.80;93.60
19261;DHT22;75986;48.588;9.216;2024-02-04T16:19:35;20.80;93.60
19261;DHT22;75986;48.588;9.216;2024-02-04T16:22:10;20.80;93.70
19261;DHT22;75986;48.588;9.216;2024-02-04T16:24:42;20.80;93.70
19261;DHT22;75986;48.588;9.216;2024-02-04T16:27:14;20.70;93.80
19261;DHT22;75986;48.588;9.216;2024-02-04T16:29:44;20.70;93.90
19261;DHT22;75986;48.588;9.216;2024-02-04T16:32:16;20.70;94.00
19261;DHT22;75986;48.588;9.216;2024-02-04T16:34:47;20.70;94.20
19261;DHT22;75986;48.588;9.216;2024-02-04T16:37:20;20.70;94.30
19261;DHT22;75986;48.588;9.216;2024-02-04T16:39:51;20.80;94.30
19261;DHT22;75986;48.588;9.216;2024-02-04T16:42:21;20.80;94.90
19261;DHT22;75986;48.588;9.216;2024-02-04T16:44:52;20.70;95.40
19261;DHT22;75986;48.588;9.216;2024-02-04T16:47:23;20.70;95.50
19261;DHT22;75986;48.588;9.216;2024-02-04T16:49:53;20.70;95.10
19261;DHT22;75986;48.588;9.216;2024-02-04T16:52:28;20.70;95.40
19261;DHT22;75986;48.588;9.216;2024-02-04T16:54:58;20.70;95.60
19261;DHT22;75986;48.588;9.216;2024-02-04T16:57:29;20.70;96.20
19261;DHT22;75986;48.588;9.216;2024-02-04T16:59:59;20.70;96.50
19261;DHT22;75986;48.588;9.216;2024-02-04T17:02:31;20.70;96.50
19261;DHT22;75986;48.588;9.216;2024-02-04T17:05:03;20.70;96.90
19261;DHT22;75986;48.588;9.216;2024-02-04T17:07:38;20.70;96.80
19261;DHT22;75986;48.588;9.216;2024-02-04T17:10:10;20.70;97.10
19261;DHT22;75986;48.588;9.216;2024-02-04T17:12:42;20.70;97.20
19261;DHT22;75986;48.588;9.216;2024-02-04T17:15:14;20.70;97.10
19261;DHT22;75986;48.588;9.216;2024-02-04T17:17:52;20.70;97.10
19261;DHT22;75986;48.588;9.216;2024-02-04T17:20:31;20.70;97.30
19261;DHT22;75986;48.588;9.216;2024-02-04T17:23:08;20.70;97.20
19261;DHT22;75986;48.588;9.216;2024-02-04T17:25:39;20.70;97.20
19261;DHT22;75986;48.588;9.216;2024-02-04T17:28:10;20.70;97.20
19261;DHT22;75986;48.588;9.216;2024-02-04T17:30:41;20.70;97.30
19261;DHT22;75986;48.588;9.216;2024-02-04T17:33:14;20.70;97.20
19261;DHT22;75986;48.588;9.216;2024-02-04T17:35:44;20.70;97.10
19261;DHT22;75986;48.588;9.216;2024-02-04T17:38:19;20.70;97.20
19261;DHT22;75986;48.588;9.216;2024-02-04T17:40:50;20.70;97.00
19261;DHT22;75986;48.588;9.216;2024-02-04T17:43:21;20.60;97.10
19261;DHT22;75986;48.588;9.216;2024-02-04T17:45:52;20.60;97.50
19261;DHT22;75986;48.588;9.216;2024-02-04T17:48:22;20.60;97.50
19261;DHT22;75986;48.588;9.216;2024-02-04T17:50:52;20.60;97.50
19261;DHT22;75986;48.588;9.216;2024-02-04T17:53:39;20.60;97.50
19261;DHT22;75986;48.588;9.216;2024-02-04T17:56:14;20.60;97.60
19261;DHT22;75986;48.588;9.216;2024-02-04T17:58:45;20.60;97.50
19261;DHT22;75986;48.588;9.216;2024-02-04T18:01:18;20.60;97.50
19261;DHT22;75986;48.588;9.216;2024-02-04T18:03:49;20.60;97.50
19261;DHT22;75986;48.588;9.216;2024-02-04T18:06:21;20.50;97.40
19261;DHT22;75986;48.588;9.216;2024-02-04T18:08:55;20.50;97.50
19261;DHT22;75986;48.588;9.216;2024-02-04T18:11:25;20.50;97.50
19261;DHT22;75986;48.588;9.216;2024-02-04T18:13:56;20.50;97.50
19261;DHT22;75986;48.588;9.216;2024-02-04T18:16:26;20.50;97.40
19261;DHT22;75986;48.588;9.216;2024-02-04T18:18:57;20.50;97.50
19261;DHT22;75986;48.588;9.216;2024-02-04T18:21:28;20.50;97.50
19261;DHT22;75986;48.588;9.216;2024-02-04T18:24:01;20.50;97.50
19261;DHT22;75986;48.588;9.216;2024-02-04T18:26:34;20.50;97.40
19261;DHT22;75986;48.588;9.216;2024-02-04T18:29:04;20.50;97.50
19261;DHT22;75986;48.588;9.216;2024-02-04T18:31:35;20.50;97.50
19261;DHT22;75986;48.588;9.216;2024-02-04T18:34:05;20.40;97.40
19261;DHT22;75986;48.588;9.216;2024-02-04T18:36:36;20.50;97.40
19261;DHT22;75986;48.588;9.216;2024-02-04T18:39:09;20.50;97.40
19261;DHT22;75986;48.588;9.216;2024-02-04T18:41:41;20.40;97.40
19261;DHT22;75986;48.588;9.216;2024-02-04T18:44:14;20.40;97.40
19261;DHT22;75986;48.588;9.216;2024-02-04T18:46:44;20.40;97.40
19261;DHT22;75986;48.588;9.216;2024-02-04T18:49:15;20.40;97.40
19261;DHT22;75986;48.588;9.216;2024-02-04T18:51:45;20.50;97.50
19261;DHT22;75986;48.588;9.216;2024-02-04T18:54:18;20.50;97.60
19261;DHT22;75986;48.588;9.216;2024-02-04T18:56:50;20.50;97.50
19261;DHT22;75986;48.588;9.216;2024-02-04T18:59:20;20.50;97.60
19261;DHT22;75986;48.588;9.216;2024-02-04T19:01:51;20.50;97.60
19261;DHT22;75986;48.588;9.216;2024-02-04T19:04:22;20.50;97.70
19261;DHT22;75986;48.588;9.216;2024-02-04T19:06:55;20.50;97.70
19261;DHT22;75986;48.588;9.216;2024-02-04T19:09:30;20.50;97.80
19261;DHT22;75986;48.588;9.216;2024-02-04T19:12:02;20.40;97.90
19261;DHT22;75986;48.588;9.216;2024-02-04T19:14:32;20.50;97.90
19261;DHT22;75986;48.588;9.216;2024-02-04T19:17:03;20.50;98.00
19261;DHT22;75986;48.588;9.216;2024-02-04T19:19:36;20.50;98.00
19261;DHT22;75986;48.588;9.216;2024-02-04T19:22:06;20.50;98.00
19261;DHT22;75986;48.588;9.216;2024-02-04T19:24:40;20.50;98.00
19261;DHT22;75986;48.588;9.216;2024-02-04T19:27:10;20.50;98.00
19261;DHT22;75986;48.588;9.216;2024-02-04T19:29:41;20.50;98.00
19261;DHT22;75986;48.588;9.216;2024-02-04T19:32:12;20.40;98.00
19261;DHT22;75986;48.588;9.216;2024-02-04T19:34:42;20.50;98.00
19261;DHT22;75986;48.588;9.216;2024-02-04T19:37:13;20.40;98.00
19261;DHT22;75986;48.588;9.216;2024-02-04T19:39:46;20.40;98.00
19261;DHT22;75986;48.588;9.216;2024-02-04T19:42:16;20.40;98.00
19261;DHT22;75986;48.588;9.216;2024-02-04T19:44:50;20.40;98.00
19261;DHT22;75986;48.588;9.216;2024-02-04T19:47:20;20.40;98.00
19261;DHT22;75986;48.588;9.216;2024-02-04T19:49:52;20.40;98.00
19261;DHT22;75986;48.588;9.216;2024-02-04T19:52:23;20.40;98.00
19261;DHT22;75986;48.588;9.216;2024-02-04T19:54:56;20.40;97.90
19261;DHT22;75986;48.588;9.216;2024-02-04T19:57:27;20.40;97.90
19261;DHT22;75986;48.588;9.216;2024-02-04T19:59:55;20.40;97.90
19261;DHT22;75986;48.588;9.216;2024-02-04T20:02:26;20.40;97.90
19261;DHT22;75986;48.588;9.216;2024-02-04T20:04:56;20.40;98.00
19261;DHT22;75986;48.588;9.216;2024-02-04T20:07:27;20.30;97.90
19261;DHT22;75986;48.588;9.216;2024-02-04T20:10:01;20.30;98.00
19261;DHT22;75986;48.588;9.216;2024-02-04T20:12:32;20.40;97.90
19261;DHT22;75986;48.588;9.216;2024-02-04T20:15:03;20.40;98.20
19261;DHT22;75986;48.588;9.216;2024-02-04T20:17:34;20.30;98.20
19261;DHT22;75986;48.588;9.216;2024-02-04T20:20:07;20.30;97.90
19261;DHT22;75986;48.588;9.216;2024-02-04T20:22:38;20.40;97.90
19261;DHT22;75986;48.588;9.216;2024-02-04T20:25:11;20.30;97.90
19261;DHT22;75986;48.588;9.216;2024-02-04T20:27:42;20.30;97.90
19261;DHT22;75986;48.588;9.216;2024-02-04T20:30:12;20.30;97.90
19261;DHT22;75986;48.588;9.216;2024-02-04T20:32:43;20.30;97.90
19261;DHT22;75986;48.588;9.216;2024-02-04T20:35:14;20.30;97.90
19261;DHT22;75986;48.588;9.216;2024-02-04T20:37:46;20.30;97.90
19261;DHT22;75986;48.588;9.216;2024-02-04T20:40:25;20.30;97.90
19261;DHT22;75986;48.588;9.216;2024-02-04T20:42:56;20.40;97.90
19261;DHT22;75986;48.588;9.216;2024-02-04T20:45:27;20.30;97.80
19261;DHT22;75986;48.588;9.216;2024-02-04T20:47:57;20.30;97.90
19261;DHT22;75986;48.588;9.216;2024-02-04T20:50:28;20.30;97.80
19261;DHT22;75986;48.588;9.216;2024-02-04T20:52:58;20.30;97.90
19261;DHT22;75986;48.588;9.216;2024-02-04T20:55:33;20.30;97.90
19261;DHT22;75986;48.588;9.216;2024-02-04T20:58:04;20.30;97.80
19261;DHT22;75986;48.588;9.216;2024-02-04T21:00:34;20.30;97.80
19261;DHT22;75986;48.588;9.216;2024-02-04T21:03:05;20.30;97.80
19261;DHT22;75986;48.588;9.216;2024-02-04T21:05:36;20.30;97.80
19261;DHT22;75986;48.588;9.216;2024-02-04T21:08:07;20.30;97.80
19261;DHT22;75986;48.588;9.216;2024-02-04T21:10:40;20.30;97.80
19261;DHT22;75986;48.588;9.216;2024-02-04T21:13:11;20.30;97.80
19261;DHT22;75986;48.588;9.216;2024-02-04T21:15:42;20.30;97.80
19261;DHT22;75986;48.588;9.216;2024-02-04T21:18:12;20.30;97.80
19261;DHT22;75986;48.588;9.216;2024-02-04T21:20:43;20.20;97.80
19261;DHT22;75986;48.588;9.216;2024-02-04T21:23:13;20.30;97.80
19261;DHT22;75986;48.588;9.216;2024-02-04T21:25:48;20.30;97.80
19261;DHT22;75986;48.588;9.216;2024-02-04T21:28:18;20.20;97.80
19261;DHT22;75986;48.588;9.216;2024-02-04T21:30:49;20.20;97.80
19261;DHT22;75986;48.588;9.216;2024-02-04T21:33:19;20.20;97.80
19261;DHT22;75986;48.588;9.216;2024-02-04T21:35:49;20.30;97.80
19261;DHT22;75986;48.588;9.216;2024-02-04T21:38:21;20.20;97.70
19261;DHT22;75986;48.588;9.216;2024-02-04T21:40:54;20.20;97.70
19261;DHT22;75986;48.588;9.216;2024-02-04T21:43:24;20.20;97.70
19261;DHT22;75986;48.588;9.216;2024-02-04T21:45:54;20.30;97.70
19261;DHT22;75986;48.588;9.216;2024-02-04T21:48:25;20.20;97.70
19261;DHT22;75986;48.588;9.216;2024-02-04T21:50:55;20.30;97.70
19261;DHT22;75986;48.588;9.216;2024-02-04T21:53:26;20.30;97.70
19261;DHT22;75986;48.588;9.216;2024-02-04T21:55:59;20.30;97.60
19261;DHT22;75986;48.588;9.216;2024-02-04T21:58:30;20.30;97.60
19261;DHT22;75986;48.588;9.216;2024-02-04T22:01:00;20.30;97.60
19261;DHT22;75986;48.588;9.216;2024-02-04T22:03:30;20.30;97.60
19261;DHT22;75986;48.588;9.216;2024-02-04T22:06:00;20.30;97.90
19261;DHT22;75986;48.588;9.216;2024-02-04T22:08:31;20.30;97.60
19261;DHT22;75986;48.588;9.216;2024-02-04T22:11:04;20.30;97.50
19261;DHT22;75986;48.588;9.216;2024-02-04T22:13:34;20.30;97.50
19261;DHT22;75986;48.588;9.216;2024-02-04T22:16:05;20.30;97.50
19261;DHT22;75986;48.588;9.216;2024-02-04T22:18:36;20.30;97.50
19261;DHT22;75986;48.588;9.216;2024-02-04T22:21:07;20.30;97.40
19261;DHT22;75986;48.588;9.216;2024-02-04T22:23:39;20.30;97.50
19261;DHT22;75986;48.588;9.216;2024-02-04T22:26:13;20.30;97.40
19261;DHT22;75986;48.588;9.216;2024-02-04T22:28:44;20.30;97.40
19261;DHT22;75986;48.588;9.216;2024-02-04T22:31:14;20.40;97.40
19261;DHT22;75986;48.588;9.216;2024-02-04T22:33:45;20.40;97.40
19261;DHT22;75986;48.588;9.216;2024-02-04T22:36:15;20.40;97.40
19261;DHT22;75986;48.588;9.216;2024-02-04T22:38:45;20.40;97.30
19261;DHT22;75986;48.588;9.216;2024-02-04T22:41:19;20.40;97.40
19261;DHT22;75986;48.588;9.216;2024-02-04T22:43:49;20.30;97.40
19261;DHT22;75986;48.588;9.216;2024-02-04T22:46:24;20.30;97.40
19261;DHT22;75986;48.588;9.216;2024-02-04T22:48:54;20.30;97.40
19261;DHT22;75986;48.588;9.216;2024-02-04T22:51:24;20.40;97.30
19261;DHT22;75986;48.588;9.216;2024-02-04T22:53:55;20.30;97.30
19261;DHT22;75986;48.588;9.216;2024-02-04T22:56:28;20.30;97.30
19261;DHT22;75986;48.588;9.216;2024-02-04T22:59:00;20.40;97.30
19261;DHT22;75986;48.588;9.216;2024-02-04T23:01:30;20.30;97.30
19261;DHT22;75986;48.588;9.216;2024-02-04T23:04:03;20.30;97.50
19261;DHT22;75986;48.588;9.216;2024-02-04T23:06:34;20.30;97.30
19261;DHT22;75986;48.588;9.216;2024-02-04T23:09:04;20.30;97.30
19261;DHT22;75986;48.588;9.216;2024-02-04T23:11:43;20.30;97.20
19261;DHT22;75986;48.588;9.216;2024-02-04T23:14:13;20.30;97.20
19261;DHT22;75986;48.588;9.216;2024-02-04T23:16:43;20.40;97.20
19261;DHT22;75986;48.588;9.216;2024-02-04T23:19:14;20.40;97.20
19261;DHT22;75986;48.588;9.216;2024-02-04T23:21:47;20.30;97.20
19261;DHT22;75986;48.588;9.216;2024-02-04T23:24:17;20.40;97.20
19261;DHT22;75986;48.588;9.216;2024-02-04T23:26:50;20.40;97.30
19261;DHT22;75986;48.588;9.216;2024-02-04T23:29:20;20.30;97.20
19261;DHT22;75986;48.588;9.216;2024-02-04T23:31:50;20.30;97.20
19261;DHT22;75986;48.588;9.216;2024-02-04T23:34:21;20.30;97.20
19261;DHT22;75986;48.588;9.216;2024-02-04T23:36:51;20.30;97.20
19261;DHT22;75986;48.588;9.216;2024-02-04T23:39:21;20.40;97.20
19261;DHT22;75986;48.588;9.216;2024-02-04T23:41:54;20.40;97.10
19261;DHT22;75986;48.588;9.216;2024-02-04T23:44:24;20.40;97.10
19261;DHT22;75986;48.588;9.216;2024-02-04T23:46:55;20.30;97.10
19261;DHT22;75986;48.588;9.216;2024-02-04T23:49:25;20.30;97.10
19261;DHT22;75986;48.588;9.216;2024-02-04T23:51:56;20.30;97.20
19261;DHT22;75986;48.588;9.216;2024-02-04T23:54:26;20.30;97.10
19261;DHT22;75986;48.588;9.216;2024-02-04T23:57:00;20.30;97.10
19261;DHT22;75986;48.588;9.216;2024-02-04T23:59:30;20.30;97.10
